Time;durP1;ratioP1;P1;durP2;ratioP2;P2;SDS_P1;SDS_P2;PMS_P1;PMS_P2;Temp;Humidity;BMP_temperature;BMP_pressure;BME280_temperature;BME280_humidity;BME280_pressure;Samples;Min_cycle;Max_cycle;Signal;HPM_P1;HPM_P2
2021/12/30 00:00:07;;;;;;;96.00;37.57;;;-2.70;99.90;;;;;;4990538;28;20239;-69
2021/12/30 00:02:35;;;;;;;105.47;40.40;;;-2.70;99.90;;;;;;4991090;28;20214;-66
2021/12/30 00:05:01;;;;;;;98.37;37.13;;;-2.70;99.90;;;;;;4987439;28;20604;-68
2021/12/30 00:07:29;;;;;;;100.77;38.43;;;-2.70;99.90;;;;;;4989626;28;20314;-70
2021/12/30 00:09:56;;;;;;;104.03;38.10;;;-2.60;99.90;;;;;;4988094;28;20204;-70
2021/12/30 00:12:22;;;;;;;107.23;39.50;;;-2.60;99.90;;;;;;4988812;28;20200;-66
2021/12/30 00:14:49;;;;;;;101.77;38.43;;;-2.60;99.90;;;;;;4991041;28;20233;-67
2021/12/30 00:17:16;;;;;;;95.40;38.33;;;-2.60;99.90;;;;;;4990630;28;20206;-66
2021/12/30 00:19:44;;;;;;;111.00;40.83;;;-2.60;99.90;;;;;;4981332;28;20200;-66
2021/12/30 00:22:11;;;;;;;110.33;40.07;;;-2.60;99.90;;;;;;4990783;28;20669;-67
2021/12/30 00:24:38;;;;;;;104.60;40.27;;;-2.60;99.90;;;;;;4991521;28;20199;-68
2021/12/30 00:27:05;;;;;;;104.93;39.80;;;-2.70;99.90;;;;;;4990794;28;20580;-67
2021/12/30 00:29:33;;;;;;;98.97;39.17;;;-2.70;99.90;;;;;;4991508;28;20212;-66
2021/12/30 00:32:00;;;;;;;101.50;40.07;;;-2.60;99.90;;;;;;4991159;28;20299;-67
2021/12/30 00:34:27;;;;;;;101.27;40.83;;;-2.60;99.90;;;;;;4991434;28;20214;-67
2021/12/30 00:36:55;;;;;;;107.20;41.00;;;-2.60;99.90;;;;;;4991483;28;20561;-65
2021/12/30 00:39:22;;;;;;;108.20;40.27;;;-2.60;99.90;;;;;;4991737;28;20222;-67
2021/12/30 00:41:49;;;;;;;113.73;42.67;;;-2.60;99.90;;;;;;4992010;28;20196;-67
2021/12/30 00:44:15;;;;;;;108.83;41.07;;;-2.60;99.90;;;;;;4995007;28;20203;-68
2021/12/30 00:46:42;;;;;;;104.13;40.40;;;-2.60;99.90;;;;;;4984790;28;20270;-65
2021/12/30 00:49:09;;;;;;;101.70;41.60;;;-2.60;99.90;;;;;;4975569;28;20215;-65
2021/12/30 00:51:37;;;;;;;110.20;41.97;;;-2.60;99.90;;;;;;4975242;28;20243;-66
2021/12/30 00:54:05;;;;;;;113.67;42.03;;;-2.60;99.90;;;;;;4975222;28;20298;-68
2021/12/30 00:56:32;;;;;;;109.57;41.47;;;-2.60;99.90;;;;;;4975452;28;20319;-67
2021/12/30 00:58:58;;;;;;;109.37;41.67;;;-2.60;99.90;;;;;;4985800;28;20231;-66
2021/12/30 01:01:25;;;;;;;97.40;40.07;;;-2.60;99.90;;;;;;4994150;28;20206;-68
2021/12/30 01:03:52;;;;;;;107.53;42.50;;;-2.60;99.90;;;;;;4994415;28;20585;-68
2021/12/30 01:06:19;;;;;;;102.83;42.07;;;-2.60;99.90;;;;;;4993270;28;20231;-69
2021/12/30 01:08:46;;;;;;;116.43;42.77;;;-2.70;99.90;;;;;;4994643;28;20568;-67
2021/12/30 01:11:14;;;;;;;110.67;41.83;;;-2.60;99.90;;;;;;4994742;28;20566;-65
2021/12/30 01:13:44;;;;;;;106.73;41.07;;;-2.70;99.90;;;;;;4994530;28;20691;-67
2021/12/30 01:16:17;;;;;;;100.47;38.20;;;-2.60;99.90;;;;;;4994401;28;20558;-68
2021/12/30 01:18:55;;;;;;;94.60;38.60;;;-2.70;99.90;;;;;;4994138;28;20191;-66
2021/12/30 01:21:24;;;;;;;105.67;40.93;;;-2.70;99.90;;;;;;4993636;28;20195;-67
2021/12/30 01:23:51;;;;;;;102.10;39.40;;;-2.70;99.90;;;;;;4988969;28;20215;-67
2021/12/30 01:26:19;;;;;;;108.43;42.03;;;-2.70;99.90;;;;;;4994226;28;20218;-67
2021/12/30 01:28:47;;;;;;;113.70;43.37;;;-2.70;99.90;;;;;;4994090;28;20206;-67
2021/12/30 01:31:14;;;;;;;105.93;41.53;;;-2.60;99.90;;;;;;4994191;28;20723;-67
2021/12/30 01:33:43;;;;;;;110.27;42.53;;;-2.60;99.90;;;;;;4994111;28;20711;-66
2021/12/30 01:36:10;;;;;;;102.90;42.10;;;-2.60;99.90;;;;;;4993791;28;20214;-66
2021/12/30 01:38:37;;;;;;;109.90;41.87;;;-2.60;99.90;;;;;;4994019;28;20218;-67
2021/12/30 01:41:04;;;;;;;109.00;41.37;;;-2.60;99.90;;;;;;4993551;28;20751;-67
2021/12/30 01:43:35;;;;;;;103.47;40.93;;;-2.60;99.90;;;;;;4993906;28;20222;-67
2021/12/30 01:46:03;;;;;;;100.47;39.37;;;-2.60;99.90;;;;;;4993051;28;20231;-67
2021/12/30 01:48:30;;;;;;;95.53;39.10;;;-2.70;99.90;;;;;;4993902;28;20216;-66
2021/12/30 01:50:57;;;;;;;90.87;38.17;;;-2.60;99.90;;;;;;4993737;28;20648;-67
2021/12/30 01:53:23;;;;;;;101.00;39.47;;;-2.60;99.90;;;;;;4993700;28;20273;-66
2021/12/30 01:55:51;;;;;;;92.50;38.70;;;-2.60;99.90;;;;;;4992089;28;20231;-68
2021/12/30 01:58:19;;;;;;;101.00;39.77;;;-2.60;99.90;;;;;;4989397;28;20223;-68
2021/12/30 02:00:50;;;;;;;101.00;38.47;;;-2.60;99.90;;;;;;4993321;28;20204;-67
2021/12/30 02:03:17;;;;;;;93.40;37.93;;;-2.60;99.90;;;;;;4993590;28;20269;-67
2021/12/30 02:05:45;;;;;;;95.57;39.40;;;-2.50;99.90;;;;;;4993445;28;20210;-66
2021/12/30 02:08:15;;;;;;;90.70;37.07;;;-2.50;99.90;;;;;;4993633;28;20233;-67
2021/12/30 02:10:42;;;;;;;93.50;38.80;;;-2.50;99.90;;;;;;4993424;28;20202;-66
2021/12/30 02:13:10;;;;;;;91.33;38.67;;;-2.40;99.90;;;;;;4993673;28;20207;-68
2021/12/30 02:15:37;;;;;;;102.20;40.00;;;-2.40;99.90;;;;;;4976482;28;20720;-67
2021/12/30 02:18:05;;;;;;;94.10;37.80;;;-2.40;99.90;;;;;;4974306;28;20204;-68
2021/12/30 02:20:44;;;;;;;92.47;38.23;;;-2.40;99.90;;;;;;4973772;28;20227;-67
2021/12/30 02:23:12;;;;;;;95.50;36.83;;;-2.50;99.90;;;;;;4974225;28;20696;-67
2021/12/30 02:25:39;;;;;;;91.43;36.50;;;-2.50;99.90;;;;;;4973953;28;20212;-68
2021/12/30 02:28:08;;;;;;;91.07;37.27;;;-2.50;99.90;;;;;;4973875;28;20594;-67
2021/12/30 02:30:35;;;;;;;88.83;35.10;;;-2.40;99.90;;;;;;4974139;28;20208;-66
2021/12/30 02:33:02;;;;;;;86.47;35.00;;;-2.40;99.90;;;;;;4973963;28;20291;-66
2021/12/30 02:35:29;;;;;;;89.10;35.90;;;-2.40;99.90;;;;;;4973840;28;20208;-66
2021/12/30 02:37:57;;;;;;;88.43;36.30;;;-2.40;99.90;;;;;;4973843;28;20211;-66
2021/12/30 02:40:26;;;;;;;91.97;37.33;;;-2.30;99.90;;;;;;4974511;28;20208;-67
2021/12/30 02:42:53;;;;;;;94.43;37.17;;;-2.30;99.90;;;;;;4992817;28;20231;-66
2021/12/30 02:45:20;;;;;;;90.30;36.27;;;-2.30;99.90;;;;;;4993144;28;20210;-66
2021/12/30 02:47:46;;;;;;;84.23;35.97;;;-2.30;99.90;;;;;;4992881;28;20227;-68
2021/12/30 02:50:13;;;;;;;93.63;38.23;;;-2.30;99.90;;;;;;4992127;28;20203;-66
2021/12/30 02:52:40;;;;;;;86.57;36.27;;;-2.30;99.90;;;;;;4992463;28;20237;-67
2021/12/30 02:55:09;;;;;;;90.03;36.53;;;-2.30;99.90;;;;;;4992738;28;20230;-67
2021/12/30 02:57:36;;;;;;;95.83;37.53;;;-2.30;99.90;;;;;;4992482;28;20210;-65
2021/12/30 03:00:06;;;;;;;96.90;38.07;;;-2.30;99.90;;;;;;4992063;28;20271;-67
2021/12/30 03:02:36;;;;;;;99.77;37.17;;;-2.20;99.90;;;;;;4992087;28;20242;-67
2021/12/30 03:05:04;;;;;;;87.90;36.30;;;-2.20;99.90;;;;;;4991835;28;20207;-66
2021/12/30 03:07:31;;;;;;;91.80;37.10;;;-2.30;99.90;;;;;;4992041;28;20215;-66
2021/12/30 03:09:57;;;;;;;100.83;37.10;;;-2.30;99.90;;;;;;4992716;28;20567;-68
2021/12/30 03:12:26;;;;;;;86.67;36.30;;;-2.30;99.90;;;;;;4992201;28;20203;-68
2021/12/30 03:14:53;;;;;;;92.50;36.17;;;-2.30;99.90;;;;;;4991995;28;20712;-65
2021/12/30 03:17:20;;;;;;;90.10;36.67;;;-2.30;99.90;;;;;;4992399;28;20199;-66
2021/12/30 03:19:47;;;;;;;90.60;35.87;;;-2.30;99.90;;;;;;4992034;28;20230;-68
2021/12/30 03:22:14;;;;;;;90.90;36.17;;;-2.30;99.90;;;;;;4992343;28;20207;-67
2021/12/30 03:24:41;;;;;;;87.67;34.20;;;-2.30;99.90;;;;;;4990921;28;20207;-67
2021/12/30 03:27:07;;;;;;;89.33;35.03;;;-2.30;99.90;;;;;;4992056;28;20676;-66
2021/12/30 03:29:36;;;;;;;76.30;32.33;;;-2.30;99.90;;;;;;4991979;28;20683;-67
2021/12/30 03:32:03;;;;;;;84.20;34.40;;;-2.30;99.90;;;;;;4991329;28;20208;-66
2021/12/30 03:34:30;;;;;;;77.30;31.57;;;-2.30;99.90;;;;;;4991834;28;20218;-67
2021/12/30 03:36:56;;;;;;;80.83;32.20;;;-2.20;99.90;;;;;;4991883;28;20196;-66
2021/12/30 03:39:23;;;;;;;88.67;34.23;;;-2.30;99.90;;;;;;4991944;28;20275;-66
2021/12/30 03:41:50;;;;;;;86.17;34.17;;;-2.40;99.90;;;;;;4991851;28;20218;-67
2021/12/30 03:44:17;;;;;;;86.83;35.20;;;-2.40;99.90;;;;;;4992104;28;20204;-67
2021/12/30 03:46:45;;;;;;;74.07;31.60;;;-2.40;99.90;;;;;;4991124;28;20207;-65
2021/12/30 03:49:12;;;;;;;75.70;31.63;;;-2.30;99.90;;;;;;4992013;28;20688;-65
2021/12/30 03:51:40;;;;;;;69.43;31.33;;;-2.30;99.90;;;;;;4991682;28;20581;-65
2021/12/30 03:54:08;;;;;;;80.50;33.93;;;-2.30;99.90;;;;;;4991560;28;20203;-67
2021/12/30 03:56:36;;;;;;;86.03;33.67;;;-2.30;99.90;;;;;;4991447;28;20626;-66
2021/12/30 03:59:04;;;;;;;79.87;33.07;;;-2.30;99.90;;;;;;4991301;28;20242;-66
2021/12/30 04:01:31;;;;;;;75.27;32.60;;;-2.30;99.90;;;;;;4991749;28;20207;-66
2021/12/30 04:03:59;;;;;;;82.23;35.13;;;-2.30;99.90;;;;;;4991060;28;20211;-66
2021/12/30 04:06:27;;;;;;;83.23;34.47;;;-2.30;99.90;;;;;;4991258;28;20207;-66
2021/12/30 04:08:54;;;;;;;80.73;35.97;;;-2.30;99.90;;;;;;4991711;28;20708;-66
2021/12/30 04:11:25;;;;;;;91.43;37.97;;;-2.30;99.90;;;;;;4991795;28;20215;-66
2021/12/30 04:13:52;;;;;;;90.80;36.37;;;-2.40;99.90;;;;;;4991331;28;20192;-65
2021/12/30 04:16:20;;;;;;;88.10;36.63;;;-2.40;99.90;;;;;;4993410;28;20557;-67
2021/12/30 04:18:48;;;;;;;93.17;37.33;;;-2.40;99.90;;;;;;4994946;28;20618;-66
2021/12/30 04:21:17;;;;;;;84.10;36.13;;;-2.50;99.90;;;;;;4994936;28;20258;-67
2021/12/30 04:23:45;;;;;;;92.97;37.87;;;-2.50;99.90;;;;;;4994991;28;20242;-66
2021/12/30 04:26:12;;;;;;;88.63;35.83;;;-2.50;99.90;;;;;;4994963;28;20298;-66
2021/12/30 04:28:38;;;;;;;79.43;35.17;;;-2.50;99.90;;;;;;4994676;28;20234;-65
2021/12/30 04:31:05;;;;;;;89.20;37.27;;;-2.50;99.90;;;;;;4995228;28;20207;-65
2021/12/30 04:33:32;;;;;;;96.47;38.20;;;-2.40;99.90;;;;;;4994536;28;20207;-66
2021/12/30 04:36:00;;;;;;;84.23;36.13;;;-2.40;99.90;;;;;;4994688;28;20211;-67
2021/12/30 04:38:31;;;;;;;87.17;36.40;;;-2.50;99.90;;;;;;4994848;28;20200;-66
2021/12/30 04:40:58;;;;;;;85.13;35.13;;;-2.50;99.90;;;;;;4994636;28;20245;-66
2021/12/30 04:43:25;;;;;;;87.90;34.67;;;-2.40;99.90;;;;;;4994660;28;20573;-66
2021/12/30 04:45:52;;;;;;;84.70;34.47;;;-2.50;99.90;;;;;;4994943;28;20207;-67
2021/12/30 04:48:19;;;;;;;85.60;36.37;;;-2.50;99.90;;;;;;4994549;28;20227;-67
2021/12/30 04:50:47;;;;;;;102.10;38.03;;;-2.50;99.90;;;;;;4994946;28;20230;-66
2021/12/30 04:53:14;;;;;;;85.70;35.47;;;-2.50;99.90;;;;;;4994816;28;20588;-67
2021/12/30 04:55:43;;;;;;;83.07;34.40;;;-2.50;99.90;;;;;;4994211;28;20223;-65
2021/12/30 04:58:10;;;;;;;79.70;32.20;;;-2.60;99.90;;;;;;4994161;28;20207;-67
2021/12/30 05:00:37;;;;;;;70.37;30.67;;;-2.60;99.90;;;;;;4993843;28;20200;-66
2021/12/30 05:03:11;;;;;;;75.93;32.27;;;-2.60;99.90;;;;;;4994395;28;20207;-67
2021/12/30 05:05:43;;;;;;;79.33;31.43;;;-2.50;99.90;;;;;;4994037;28;20566;-65
2021/12/30 05:08:10;;;;;;;68.33;29.00;;;-2.50;99.90;;;;;;4994505;28;20216;-66
2021/12/30 05:10:38;;;;;;;65.97;27.20;;;-2.60;99.90;;;;;;4994122;28;20207;-65
2021/12/30 05:13:08;;;;;;;66.53;28.33;;;-2.50;99.90;;;;;;4994204;28;20223;-68
2021/12/30 05:15:36;;;;;;;67.87;28.60;;;-2.50;99.90;;;;;;4993837;28;20210;-67
2021/12/30 05:18:04;;;;;;;69.30;27.87;;;-2.50;99.90;;;;;;4994248;28;20203;-66
2021/12/30 05:20:31;;;;;;;76.07;30.07;;;-2.50;99.90;;;;;;4993629;28;20211;-67
2021/12/30 05:22:58;;;;;;;71.70;28.83;;;-2.50;99.90;;;;;;4993939;28;20210;-65
2021/12/30 05:25:27;;;;;;;78.87;30.50;;;-2.50;99.90;;;;;;4993821;28;20208;-67
2021/12/30 05:27:55;;;;;;;76.83;31.97;;;-2.50;99.90;;;;;;4992847;28;20219;-67
2021/12/30 05:30:24;;;;;;;81.73;30.13;;;-2.60;99.90;;;;;;4993985;28;20211;-67
2021/12/30 05:32:52;;;;;;;72.80;29.13;;;-2.50;99.90;;;;;;4993767;28;20215;-66
2021/12/30 05:35:19;;;;;;;72.17;29.47;;;-2.50;99.90;;;;;;4993708;28;20207;-67
2021/12/30 05:37:46;;;;;;;68.10;27.87;;;-2.50;99.90;;;;;;4993694;28;20208;-67
2021/12/30 05:40:16;;;;;;;84.37;31.67;;;-2.50;99.90;;;;;;4993603;28;20218;-68
2021/12/30 05:42:43;;;;;;;72.13;29.50;;;-2.50;99.90;;;;;;4993971;28;20207;-66
2021/12/30 05:45:14;;;;;;;75.03;28.90;;;-2.50;99.90;;;;;;4993347;28;20203;-66
2021/12/30 05:47:42;;;;;;;71.93;27.73;;;-2.50;99.90;;;;;;4993332;28;20218;-67
2021/12/30 05:50:11;;;;;;;68.90;26.60;;;-2.40;99.90;;;;;;4993854;28;20218;-67
2021/12/30 05:52:38;;;;;;;74.93;28.60;;;-2.40;99.90;;;;;;4993778;28;20720;-66
2021/12/30 05:55:05;;;;;;;83.03;29.63;;;-2.40;99.90;;;;;;4993662;28;20224;-67
2021/12/30 05:57:33;;;;;;;68.93;28.53;;;-2.40;99.90;;;;;;4993239;28;20215;-66
2021/12/30 06:00:00;;;;;;;70.23;29.27;;;-2.40;99.90;;;;;;4993311;28;20743;-66
2021/12/30 06:02:27;;;;;;;85.17;31.00;;;-2.40;99.90;;;;;;4992959;28;20656;-67
2021/12/30 06:04:55;;;;;;;87.30;32.20;;;-2.40;99.90;;;;;;4993511;28;20213;-67
2021/12/30 06:07:21;;;;;;;87.23;30.97;;;-2.40;99.90;;;;;;4992658;28;20207;-65
2021/12/30 06:09:48;;;;;;;76.33;29.00;;;-2.40;99.90;;;;;;4992267;28;20203;-67
2021/12/30 06:12:15;;;;;;;82.60;31.97;;;-2.40;99.90;;;;;;4992931;28;20202;-67
2021/12/30 06:14:42;;;;;;;81.40;29.80;;;-2.30;99.90;;;;;;4993018;28;20207;-66
2021/12/30 06:17:10;;;;;;;75.47;30.17;;;-2.30;99.90;;;;;;4992814;28;20603;-66
2021/12/30 06:19:37;;;;;;;79.13;30.20;;;-2.30;99.90;;;;;;4993253;28;20204;-66
2021/12/30 06:22:06;;;;;;;92.27;33.17;;;-2.30;99.90;;;;;;4992528;28;20206;-66
2021/12/30 06:24:33;;;;;;;82.87;31.73;;;-2.30;99.90;;;;;;4992839;28;20211;-66
2021/12/30 06:27:00;;;;;;;99.50;33.07;;;-2.30;99.90;;;;;;4993096;28;20298;-66
2021/12/30 06:29:27;;;;;;;87.60;30.30;;;-2.40;99.90;;;;;;4992039;28;20238;-65
2021/12/30 06:31:54;;;;;;;89.10;30.57;;;-2.40;99.90;;;;;;4992507;28;20211;-65
2021/12/30 06:34:21;;;;;;;82.70;29.63;;;-2.30;99.90;;;;;;4992863;28;20231;-68
2021/12/30 06:36:48;;;;;;;82.50;29.67;;;-2.30;99.90;;;;;;4992758;28;20214;-67
2021/12/30 06:39:16;;;;;;;73.73;28.37;;;-2.30;99.90;;;;;;4991831;28;20299;-67
2021/12/30 06:41:43;;;;;;;84.70;30.07;;;-2.40;99.90;;;;;;4992127;28;20199;-66
2021/12/30 06:44:10;;;;;;;81.50;30.90;;;-2.30;99.90;;;;;;4992378;28;20221;-66
2021/12/30 06:46:37;;;;;;;90.93;30.00;;;-2.30;99.90;;;;;;4992783;28;20210;-66
2021/12/30 06:49:07;;;;;;;83.83;29.70;;;-2.30;99.90;;;;;;4992569;28;20253;-68
2021/12/30 06:51:35;;;;;;;84.73;29.53;;;-2.30;99.90;;;;;;4992357;28;20295;-66
2021/12/30 06:54:02;;;;;;;93.47;31.23;;;-2.30;99.90;;;;;;4991899;28;20242;-66
2021/12/30 06:56:30;;;;;;;93.03;31.40;;;-2.30;99.90;;;;;;4992327;28;20215;-66
2021/12/30 06:58:57;;;;;;;84.63;30.67;;;-2.30;99.90;;;;;;4992388;28;20231;-68
2021/12/30 07:01:24;;;;;;;83.40;30.80;;;-2.20;99.90;;;;;;4990263;28;20231;-67
2021/12/30 07:03:50;;;;;;;82.50;30.60;;;-2.20;99.90;;;;;;4991713;28;20212;-67
2021/12/30 07:06:17;;;;;;;87.07;32.27;;;-2.20;99.90;;;;;;4992293;28;20684;-65
2021/12/30 07:08:44;;;;;;;89.13;31.50;;;-2.20;99.90;;;;;;4991776;28;20238;-65
2021/12/30 07:11:11;;;;;;;92.23;33.63;;;-2.20;99.90;;;;;;4991940;28;20653;-65
2021/12/30 07:13:39;;;;;;;89.90;32.13;;;-2.20;99.90;;;;;;4992344;28;20210;-67
2021/12/30 07:16:06;;;;;;;95.67;32.17;;;-2.20;99.90;;;;;;4989479;28;20208;-65
2021/12/30 07:18:33;;;;;;;89.53;31.10;;;-2.20;99.90;;;;;;4988145;28;20293;-66
2021/12/30 07:21:00;;;;;;;101.13;32.63;;;-2.20;99.90;;;;;;4991270;28;20199;-66
2021/12/30 07:23:26;;;;;;;100.40;32.13;;;-2.20;99.90;;;;;;4991484;28;20573;-68
2021/12/30 07:25:53;;;;;;;87.23;31.47;;;-2.20;99.90;;;;;;4991651;28;20799;-66
2021/12/30 07:28:20;;;;;;;86.57;28.67;;;-2.20;99.90;;;;;;4991358;28;20216;-65
2021/12/30 07:30:48;;;;;;;84.93;30.27;;;-2.30;99.90;;;;;;4991859;28;20318;-67
2021/12/30 07:33:15;;;;;;;81.27;29.07;;;-2.20;99.90;;;;;;4990663;28;20203;-66
2021/12/30 07:35:42;;;;;;;73.97;28.83;;;-2.20;99.90;;;;;;4991411;28;20207;-64
2021/12/30 07:38:08;;;;;;;68.57;27.03;;;-2.20;99.90;;;;;;4991397;28;20195;-66
2021/12/30 07:40:35;;;;;;;69.30;27.53;;;-2.20;99.90;;;;;;4991705;28;20203;-64
2021/12/30 07:43:02;;;;;;;65.93;24.87;;;-2.20;99.90;;;;;;4991565;28;20204;-67
2021/12/30 07:45:29;;;;;;;55.77;23.33;;;-2.10;99.90;;;;;;4991644;28;20203;-65
2021/12/30 07:47:57;;;;;;;60.17;24.40;;;-2.10;99.90;;;;;;4991617;28;20207;-66
2021/12/30 07:50:24;;;;;;;61.97;24.17;;;-2.10;99.90;;;;;;4987283;28;20211;-67
2021/12/30 07:52:53;;;;;;;55.60;23.93;;;-2.10;99.90;;;;;;4995514;28;20215;-66
2021/12/30 07:55:20;;;;;;;58.83;23.03;;;-2.00;99.90;;;;;;4995547;28;20209;-67
2021/12/30 07:57:47;;;;;;;48.67;21.33;;;-2.00;99.90;;;;;;4995244;28;20672;-65
2021/12/30 08:00:17;;;;;;;45.37;20.57;;;-2.00;99.90;;;;;;4994953;28;20265;-66
2021/12/30 08:02:45;;;;;;;53.53;20.97;;;-2.00;99.90;;;;;;4995429;28;20207;-68
2021/12/30 08:05:15;;;;;;;50.60;20.50;;;-2.10;99.90;;;;;;4994973;28;20647;-67
2021/12/30 08:07:42;;;;;;;38.57;19.43;;;-2.00;99.90;;;;;;4995387;28;20199;-67
2021/12/30 08:10:12;;;;;;;46.53;20.30;;;-2.00;99.90;;;;;;4994799;28;20216;-66
2021/12/30 08:12:39;;;;;;;42.27;19.30;;;-2.00;99.90;;;;;;4991762;28;20227;-66
2021/12/30 08:15:07;;;;;;;43.27;20.73;;;-2.00;99.90;;;;;;4994971;28;20203;-66
2021/12/30 08:17:35;;;;;;;45.37;20.77;;;-2.00;99.90;;;;;;4995012;28;20208;-66
2021/12/30 08:20:02;;;;;;;38.03;18.80;;;-1.90;99.90;;;;;;4995389;28;20211;-67
2021/12/30 08:22:30;;;;;;;38.93;18.77;;;-1.90;99.90;;;;;;4995596;28;20206;-67
2021/12/30 08:24:57;;;;;;;36.63;17.90;;;-1.90;99.90;;;;;;4994755;28;20713;-66
2021/12/30 08:27:24;;;;;;;37.80;17.17;;;-1.90;99.90;;;;;;4994932;28;20199;-65
2021/12/30 08:29:50;;;;;;;41.70;16.83;;;-1.80;99.90;;;;;;4993986;28;20680;-66
2021/12/30 08:32:18;;;;;;;34.87;16.00;;;-1.90;99.90;;;;;;4994667;28;20568;-67
2021/12/30 08:34:46;;;;;;;30.83;14.83;;;-1.90;99.90;;;;;;4995256;28;20258;-66
2021/12/30 08:37:15;;;;;;;39.57;16.17;;;-1.90;99.90;;;;;;4996094;28;20540;-65
2021/12/30 08:39:45;;;;;;;37.10;17.13;;;-1.80;99.90;;;;;;4995111;28;20287;-65
2021/12/30 08:42:20;;;;;;;36.87;16.97;;;-1.80;99.90;;;;;;4995170;28;20629;-65
2021/12/30 08:44:47;;;;;;;32.33;16.53;;;-1.80;99.90;;;;;;4991871;28;20214;-66
2021/12/30 08:47:14;;;;;;;36.00;17.33;;;-1.80;99.90;;;;;;4991029;28;20563;-66
2021/12/30 08:49:44;;;;;;;35.63;17.43;;;-1.80;99.90;;;;;;4993705;28;20231;-66
2021/12/30 08:52:11;;;;;;;36.00;16.57;;;-1.80;99.90;;;;;;4993991;28;20191;-66
2021/12/30 08:54:38;;;;;;;39.50;18.03;;;-1.70;99.90;;;;;;4994180;28;20207;-67
2021/12/30 08:57:06;;;;;;;38.27;18.30;;;-1.70;99.90;;;;;;4994540;28;20683;-65
2021/12/30 08:59:35;;;;;;;34.17;16.37;;;-1.70;99.90;;;;;;4994067;28;20238;-66
2021/12/30 09:02:02;;;;;;;35.03;16.20;;;-1.80;99.90;;;;;;4993434;28;20536;-66
2021/12/30 09:04:28;;;;;;;35.03;17.17;;;-1.70;99.90;;;;;;4993585;28;20652;-67
2021/12/30 09:06:55;;;;;;;35.03;17.70;;;-1.70;99.90;;;;;;4994149;28;20208;-68
2021/12/30 09:09:22;;;;;;;36.83;17.73;;;-1.70;99.90;;;;;;4994148;28;20246;-65
2021/12/30 09:11:49;;;;;;;34.00;16.80;;;-1.60;99.90;;;;;;4993891;28;20306;-67
2021/12/30 09:14:18;;;;;;;37.83;17.13;;;-1.60;99.90;;;;;;4994189;28;20262;-66
2021/12/30 09:16:45;;;;;;;36.93;17.67;;;-1.60;99.90;;;;;;4993775;28;20211;-66
2021/12/30 09:19:12;;;;;;;36.07;17.63;;;-1.60;99.90;;;;;;4994040;28;20222;-67
2021/12/30 09:21:40;;;;;;;33.83;17.20;;;-1.60;99.90;;;;;;4993807;28;20203;-65
2021/12/30 09:24:08;;;;;;;35.40;17.10;;;-1.60;99.90;;;;;;4994801;28;20227;-66
2021/12/30 09:26:35;;;;;;;35.90;18.07;;;-1.60;99.90;;;;;;4993554;28;20207;-66
2021/12/30 09:29:04;;;;;;;31.93;16.13;;;-1.60;99.90;;;;;;4993239;28;20231;-68
2021/12/30 09:31:32;;;;;;;36.83;17.73;;;-1.60;99.90;;;;;;4993952;28;20222;-67
2021/12/30 09:33:59;;;;;;;35.77;18.00;;;-1.60;99.90;;;;;;4993648;28;20200;-66
2021/12/30 09:36:26;;;;;;;34.13;17.10;;;-1.60;99.90;;;;;;4993961;28;20206;-68
2021/12/30 09:38:53;;;;;;;40.40;18.87;;;-1.60;99.90;;;;;;4989288;28;20200;-67
2021/12/30 09:41:20;;;;;;;40.73;18.63;;;-1.60;99.90;;;;;;4994229;28;20295;-66
2021/12/30 09:43:47;;;;;;;37.47;18.20;;;-1.50;99.90;;;;;;4993501;28;20287;-67
2021/12/30 09:46:17;;;;;;;41.00;19.20;;;-1.50;99.90;;;;;;4993749;28;20215;-66
2021/12/30 09:48:46;;;;;;;39.87;19.10;;;-1.50;99.90;;;;;;4993537;28;20243;-66
2021/12/30 09:51:13;;;;;;;42.27;20.07;;;-1.40;99.90;;;;;;4993885;28;20246;-68
2021/12/30 09:53:39;;;;;;;42.03;19.93;;;-1.40;99.90;;;;;;4993718;28;20206;-66
2021/12/30 09:56:06;;;;;;;41.73;20.87;;;-1.40;99.90;;;;;;4993448;28;20656;-67
2021/12/30 09:58:33;;;;;;;41.67;20.70;;;-1.40;99.90;;;;;;4993603;28;20589;-67
2021/12/30 10:01:01;;;;;;;43.23;20.47;;;-1.40;99.90;;;;;;4993203;28;20298;-67
2021/12/30 10:03:28;;;;;;;37.40;19.93;;;-1.30;99.90;;;;;;4993702;28;20298;-67
2021/12/30 10:06:06;;;;;;;37.93;19.60;;;-1.30;99.90;;;;;;4992418;28;20242;-68
2021/12/30 10:08:36;;;;;;;41.13;19.77;;;-1.30;99.90;;;;;;4993370;28;20195;-68
2021/12/30 10:11:05;;;;;;;41.43;19.87;;;-1.30;99.90;;;;;;4993080;28;20278;-67
2021/12/30 10:13:34;;;;;;;42.17;19.63;;;-1.30;99.90;;;;;;4997622;28;20204;-71
2021/12/30 10:16:02;;;;;;;41.40;19.87;;;-1.30;99.90;;;;;;4999155;28;20730;-66
2021/12/30 10:18:43;;;;;;;38.80;19.57;;;-1.30;99.90;;;;;;4993445;28;20603;-66
2021/12/30 10:21:17;;;;;;;43.40;21.47;;;-1.20;99.90;;;;;;4990459;28;20294;-66
2021/12/30 10:23:47;;;;;;;41.90;20.47;;;-1.20;99.90;;;;;;4990900;28;20223;-66
2021/12/30 10:26:14;;;;;;;39.83;19.50;;;-1.20;99.90;;;;;;4991715;28;20215;-65
2021/12/30 10:28:43;;;;;;;36.53;18.20;;;-1.30;99.90;;;;;;4991650;28;20572;-66
2021/12/30 10:31:25;;;;;;;39.43;18.77;;;-1.30;99.90;;;;;;4990492;28;20301;-68
2021/12/30 10:33:55;;;;;;;35.03;18.07;;;-1.40;99.90;;;;;;4988843;28;20226;-67
2021/12/30 10:36:25;;;;;;;36.10;18.83;;;-1.30;99.90;;;;;;4988074;28;20291;-67
2021/12/30 10:38:53;;;;;;;38.10;19.37;;;-1.30;99.90;;;;;;4992067;28;20225;-67
2021/12/30 10:41:24;;;;;;;39.93;20.10;;;-1.30;99.90;;;;;;4991463;28;20650;-69
2021/12/30 10:43:54;;;;;;;38.67;18.37;;;-1.20;99.90;;;;;;4992011;28;20207;-66
2021/12/30 10:46:22;;;;;;;36.20;17.97;;;-1.40;99.90;;;;;;4992347;28;20644;-67
2021/12/30 10:48:55;;;;;;;32.87;17.40;;;-1.40;99.90;;;;;;4992212;28;20214;-67
2021/12/30 10:51:26;;;;;;;37.77;17.90;;;-1.40;99.90;;;;;;4987061;28;20195;-66
2021/12/30 10:53:54;;;;;;;39.70;19.43;;;-1.30;99.90;;;;;;4988953;28;20219;-66
2021/12/30 10:56:31;;;;;;;38.07;19.23;;;-1.30;99.90;;;;;;4993341;28;20204;-67
2021/12/30 10:59:18;;;;;;;36.90;18.97;;;-1.30;99.90;;;;;;4991927;28;20711;-66
2021/12/30 11:01:48;;;;;;;34.83;18.80;;;-1.30;99.90;;;;;;4991394;28;20204;-67
2021/12/30 11:04:16;;;;;;;39.77;19.60;;;-1.30;99.90;;;;;;4985677;28;20254;-65
2021/12/30 11:06:46;;;;;;;36.23;18.30;;;-1.30;99.90;;;;;;4985127;28;20234;-68
2021/12/30 11:09:22;;;;;;;37.70;17.67;;;-1.30;99.90;;;;;;4990777;28;20219;-69
2021/12/30 11:11:52;;;;;;;36.40;18.47;;;-1.40;99.90;;;;;;4988568;28;20207;-68
2021/12/30 11:14:21;;;;;;;39.13;19.30;;;-1.50;99.90;;;;;;4992554;28;20222;-67
2021/12/30 11:17:10;;;;;;;38.27;18.80;;;-1.50;99.90;;;;;;4993081;28;20668;-66
2021/12/30 11:19:40;;;;;;;37.33;19.37;;;-1.40;99.90;;;;;;4992654;28;20589;-66
2021/12/30 11:22:11;;;;;;;37.90;17.90;;;-1.50;99.90;;;;;;4987997;28;20536;-67
2021/12/30 11:24:39;;;;;;;33.43;17.53;;;-1.50;99.90;;;;;;4992751;28;20202;-66
2021/12/30 11:27:08;;;;;;;36.53;18.53;;;-1.60;99.90;;;;;;4992551;28;20660;-66
2021/12/30 11:29:37;;;;;;;33.87;17.93;;;-1.60;99.90;;;;;;4988325;28;20293;-67
2021/12/30 11:32:06;;;;;;;38.93;19.13;;;-1.60;99.90;;;;;;4986199;28;20269;-67
2021/12/30 11:34:34;;;;;;;37.63;18.93;;;-1.60;99.90;;;;;;4987952;28;20238;-68
2021/12/30 11:37:01;;;;;;;37.67;19.63;;;-1.60;99.90;;;;;;4988574;28;20762;-67
2021/12/30 11:39:29;;;;;;;38.53;20.17;;;-1.50;99.90;;;;;;4991465;28;20199;-70
2021/12/30 11:42:01;;;;;;;39.17;20.20;;;-1.40;99.90;;;;;;4997036;28;20209;-69
2021/12/30 11:44:45;;;;;;;35.70;18.73;;;-1.40;99.90;;;;;;4990901;28;20273;-67
2021/12/30 11:47:38;;;;;;;39.93;19.53;;;-1.30;99.90;;;;;;4988493;28;20240;-65
2021/12/30 11:50:08;;;;;;;37.63;19.33;;;-1.20;99.90;;;;;;4981533;28;20258;-66
2021/12/30 11:52:58;;;;;;;38.53;19.17;;;-1.20;99.90;;;;;;4991298;28;20210;-69
2021/12/30 11:55:49;;;;;;;36.90;19.27;;;-1.30;99.90;;;;;;4986687;28;20199;-69
2021/12/30 11:58:40;;;;;;;39.53;20.23;;;-1.50;99.90;;;;;;4991214;28;20338;-67
2021/12/30 12:01:33;;;;;;;37.33;17.93;;;-1.50;99.90;;;;;;4990732;28;20206;-68
2021/12/30 12:04:02;;;;;;;44.20;21.00;;;-1.50;99.90;;;;;;4990435;28;20552;-68
2021/12/30 12:06:32;;;;;;;36.87;19.23;;;-1.40;99.90;;;;;;4990809;28;20306;-68
2021/12/30 12:09:02;;;;;;;40.17;20.10;;;-1.40;99.90;;;;;;4992006;28;20675;-66
2021/12/30 12:11:31;;;;;;;42.10;21.40;;;-1.30;99.90;;;;;;4988888;28;20238;-67
2021/12/30 12:14:13;;;;;;;49.30;23.43;;;-1.30;99.90;;;;;;4990334;28;20466;-67
2021/12/30 12:16:47;;;;;;;42.63;21.20;;;-1.30;99.90;;;;;;4991317;28;20196;-67
2021/12/30 12:19:16;;;;;;;40.67;19.77;;;-1.30;99.90;;;;;;5009287;28;20201;-66
2021/12/30 12:21:45;;;;;;;41.67;20.77;;;-1.30;99.90;;;;;;4996791;28;20210;-68
2021/12/30 12:24:33;;;;;;;39.33;19.63;;;-1.20;99.90;;;;;;4992063;28;20548;-67
2021/12/30 12:27:04;;;;;;;45.63;21.10;;;-1.20;99.90;;;;;;4991562;28;20701;-66
2021/12/30 12:29:33;;;;;;;43.90;21.17;;;-1.10;99.90;;;;;;4992046;28;20622;-68
2021/12/30 12:32:03;;;;;;;42.67;20.63;;;-1.10;99.90;;;;;;4992405;28;20621;-65